Time,TemperatureF,DewpointF,PressureIn,WindDirection,WindDirectionDegrees,WindSpeedMPH,WindSpeedGustMPH,Humidity,HourlyPrecipIn,Conditions,Clouds,dailyrainin,SoftwareType,DateUTC
2013-01-06 00:00:00,46.9,45.6,30.41,South,185,2.0,5.0,95,0.00,BKN,,0.00,WeatherDisplay:10.37,2013-01-06 00:00:00,
2013-01-06 00:30:00,46.6,44.9,30.41,South,172,0.0,4.0,94,0.00,BKN,,0.00,WeatherDisplay:10.37,2013-01-06 00:30:00,
2013-01-06 01:00:00,46.6,45.2,30.40,South,191,1.0,6.0,95,0.00,SCT,,0.00,WeatherDisplay:10.37,2013-01-06 01:00:00,
2013-01-06 01:30:00,46.2,44.9,30.38,South,178,0.0,5.0,95,0.00,FEW,,0.00,WeatherDisplay:10.37,2013-01-06 01:30:00,
2013-01-06 02:00:00,44.7,43.4,30.38,SSW,213,3.0,7.0,95,0.00,FEW,,0.00,WeatherDisplay:10.37,2013-01-06 02:00:00,
2013-01-06 02:30:00,47.8,46.7,30.37,SSW,204,6.0,9.0,96,0.00,FEW,,0.00,WeatherDisplay:10.37,2013-01-06 02:30:00,
2013-01-06 03:00:00,48.3,47.2,30.38,SSW,193,2.0,12.0,96,0.00,FEW,,0.00,WeatherDisplay:10.37,2013-01-06 03:00:00,
2013-01-06 03:30:00,49.0,48.0,30.38,South,186,3.0,8.0,96,0.00,FEW,,0.00,WeatherDisplay:10.37,2013-01-06 03:30:00,
2013-01-06 04:00:00,49.5,48.1,30.36,SSW,193,2.0,8.0,95,0.00,FEW,,0.00,WeatherDisplay:10.37,2013-01-06 04:00:00,
2013-01-06 04:30:00,49.4,47.5,30.34,South,175,3.0,8.0,93,0.00,FEW,,0.00,WeatherDisplay:10.37,2013-01-06 04:30:00,
2013-01-06 05:00:00,49.4,47.2,30.32,SSE,153,2.0,8.0,92,0.00,FEW,,0.00,WeatherDisplay:10.37,2013-01-06 05:00:00,
2013-01-06 05:30:00,50.4,47.9,30.31,SSE,159,2.0,7.0,91,0.00,SCT,,0.00,WeatherDisplay:10.37,2013-01-06 05:30:00,
2013-01-06 06:00:00,51.0,48.5,30.31,South,178,3.0,7.0,91,0.00,BKN,,0.00,WeatherDisplay:10.37,2013-01-06 06:00:00,
2013-01-06 06:30:00,51.5,49.3,30.31,South,181,5.0,8.0,92,0.00,BKN,,0.00,WeatherDisplay:10.37,2013-01-06 06:30:00,
2013-01-06 07:00:00,52.1,49.6,30.30,SSW,201,7.0,13.0,91,0.00,BKN,,0.00,WeatherDisplay:10.37,2013-01-06 07:00:00,
2013-01-06 07:30:00,51.5,49.3,30.31,South,172,3.0,13.0,92,0.00,BKN,,0.00,WeatherDisplay:10.37,2013-01-06 07:30:00,
2013-01-06 08:00:00,50.7,48.2,30.29,SSW,192,7.0,12.0,91,0.00,BKN,,0.00,WeatherDisplay:10.37,2013-01-06 08:00:00,
2013-01-06 08:30:00,50.3,47.5,30.30,SSW,212,3.0,13.0,90,0.00,BKN,,0.00,WeatherDisplay:10.37,2013-01-06 08:30:00,
2013-01-06 09:00:00,49.6,46.2,30.29,South,185,5.0,12.0,88,0.00,BKN,,0.00,WeatherDisplay:10.37,2013-01-06 09:00:00,
2013-01-06 09:30:00,49.2,45.8,30.28,South,187,6.0,15.0,88,0.00,BKN,,0.00,WeatherDisplay:10.37,2013-01-06 09:30:00,
2013-01-06 10:00:00,49.2,45.2,30.28,South,186,7.0,15.0,86,0.00,BKN,,0.00,WeatherDisplay:10.37,2013-01-06 10:00:00,
2013-01-06 10:30:00,49.0,45.3,30.29,SSW,192,6.0,15.0,87,0.00,BKN,,0.00,WeatherDisplay:10.37,2013-01-06 10:30:00,
2013-01-06 11:00:00,48.9,45.2,30.28,SSW,196,6.0,15.0,87,0.00,BKN,,0.00,WeatherDisplay:10.37,2013-01-06 11:00:00,
2013-01-06 11:30:00,49.0,45.6,30.27,SSW,196,8.0,15.0,88,0.00,BKN,,0.00,WeatherDisplay:10.37,2013-01-06 11:30:00,
2013-01-06 12:00:00,49.2,45.8,30.27,SSW,196,6.0,16.0,88,0.00,BKN,,0.00,WeatherDisplay:10.37,2013-01-06 12:00:00,
2013-01-06 12:30:00,49.5,46.1,30.25,SSW,197,6.0,17.0,88,0.00,BKN,,0.00,WeatherDisplay:10.37,2013-01-06 12:30:00,
2013-01-06 13:00:00,49.9,46.5,30.25,SSW,205,8.0,18.0,88,0.00,BKN,,0.00,WeatherDisplay:10.37,2013-01-06 13:00:00,
2013-01-06 13:30:00,50.3,46.9,30.24,SSW,194,6.0,16.0,88,0.00,BKN,,0.00,WeatherDisplay:10.37,2013-01-06 13:30:00,
2013-01-06 14:00:00,50.5,46.8,30.23,South,187,8.0,16.0,87,0.00,BKN,,0.00,WeatherDisplay:10.37,2013-01-06 14:00:00,
2013-01-06 14:30:00,50.9,47.5,30.23,SSW,192,6.0,17.0,88,0.00,BKN,,0.00,WeatherDisplay:10.37,2013-01-06 14:30:00,
2013-01-06 15:00:00,50.7,47.6,30.22,SW,220,8.0,14.0,89,0.00,BKN,,0.00,WeatherDisplay:10.37,2013-01-06 15:00:00,
2013-01-06 15:30:00,50.8,48.0,30.21,SSW,200,6.0,15.0,90,0.00,BKN,,0.00,WeatherDisplay:10.37,2013-01-06 15:30:00,
2013-01-06 16:00:00,50.7,47.9,30.21,SW,214,7.0,14.0,90,0.00,BKN,,0.00,WeatherDisplay:10.37,2013-01-06 16:00:00,
2013-01-06 16:30:00,50.1,47.3,30.20,SSW,211,3.0,15.0,90,0.00,BKN,,0.00,WeatherDisplay:10.37,2013-01-06 16:30:00,
2013-01-06 17:00:00,49.8,47.3,30.20,SSW,203,5.0,12.0,91,0.00,BKN,,0.00,WeatherDisplay:10.37,2013-01-06 17:00:00,
2013-01-06 17:30:00,49.7,47.2,30.20,SSW,197,6.0,9.0,91,0.00,BKN,,0.00,WeatherDisplay:10.37,2013-01-06 17:30:00,
2013-01-06 18:00:00,50.1,47.6,30.19,South,179,6.0,15.0,91,0.00,BKN,,0.00,WeatherDisplay:10.37,2013-01-06 18:00:00,
2013-01-06 18:30:00,50.2,47.7,30.19,SSW,204,7.0,17.0,91,0.00,BKN,,0.00,WeatherDisplay:10.37,2013-01-06 18:30:00,
2013-01-06 19:00:00,50.3,47.8,30.19,SSW,192,6.0,15.0,91,0.00,BKN,,0.00,WeatherDisplay:10.37,2013-01-06 19:00:00,
2013-01-06 19:30:00,50.3,47.7,30.19,South,184,5.0,15.0,91,0.00,BKN,,0.00,WeatherDisplay:10.37,2013-01-06 19:30:00,
2013-01-06 20:00:00,50.2,48.0,30.19,SSW,192,5.0,14.0,92,0.00,BKN,,0.00,WeatherDisplay:10.37,2013-01-06 20:00:00,
2013-01-06 20:30:00,50.3,48.1,30.19,South,184,7.0,13.0,92,0.00,BKN,,0.00,WeatherDisplay:10.37,2013-01-06 20:30:00,
2013-01-06 21:00:00,50.5,48.3,30.19,South,184,7.0,14.0,92,0.00,BKN,,0.00,WeatherDisplay:10.37,2013-01-06 21:00:00,
2013-01-06 21:30:00,50.3,47.8,30.20,SSW,205,7.0,15.0,91,0.00,BKN,,0.00,WeatherDisplay:10.37,2013-01-06 21:30:00,
2013-01-06 22:00:00,50.1,47.6,30.19,South,181,5.0,13.0,91,0.00,BKN,,0.00,WeatherDisplay:10.37,2013-01-06 22:00:00,
2013-01-06 22:30:00,50.0,47.5,30.18,SSW,206,6.0,13.0,91,0.00,BKN,,0.00,WeatherDisplay:10.37,2013-01-06 22:30:00,
2013-01-06 23:00:00,49.9,47.4,30.18,South,171,2.0,12.0,91,0.00,BKN,,0.00,WeatherDisplay:10.37,2013-01-06 23:00:00,
2013-01-06 23:30:00,49.9,47.4,30.18,SSW,196,6.0,12.0,91,0.00,BKN,,0.00,WeatherDisplay:10.37,2013-01-06 23:30:00,